メインページ
METAR-TAF:

METAR-TAF

空港 :

マナグア国際空港

マナグア, ニカラグア

緯度: 12-09N, 経度: 086-10W, 海抜: 50m

現時点の気象観測

当レポートは2時間32分前の06:00(UTC)に作成
南/南東の風 4kt
気温 26°C
湿度 84%
気圧 1013 hPa
視程10km以上
高度2300ftの雲はほとんどない
高度30000ftの雲は散在している

METAR: MNMG 190600Z 15004KT 9999 FEW023 SCT300 26/23 Q1012 A2990 NOSIG

時間: 02:32 (08:32 UTC)

予報

当レポートは5時間5分前の03:27(UTC)に作成
予報は19日の 06時(UTC)から 20日の 06時(UTC)まで有効
東/南東の風 4kt
視程10km以上
高度2000ftの雲はほとんどない, 積乱雲.
高度2300ftの雲は散在している
確率 30% :
19日の 05時(UTC)から 19日の 12時(UTC)まで一時的に
南東の風 6kt
視程: 8000m
高度2200ftの雲はほとんどない, 積乱雲.
高度2500ftの千切れ雲あり
19日の 13時(UTC)から 19日の 20時(UTC)まで一時的に
東/北東の風 6kt
視程10km以上
高度2200ftの雲はほとんどない, 積乱雲.
高度30000ftの雲は散在している

TAF: MNMG 190327Z 1906/2006 11004KT 9999 FEW020CB SCT023 PROB30 TEMPO 1905/1912 13006KT 8000 -TSRA/DZ FEW022CB BKN025 TEMPO 1913/1920 06006KT 9999 FEW022CB SCT300

4,000以上の空港の気象観測と天気予報(METAR報とTAF報)

利用可能な観測所は地図上に黄色い丸と赤い丸で示す。

丸の上にカーソルを重ねると観測所名を参照できる。

次にクリックすると気象観測と天気予報を参照できる。

マップの切り替え:黒色「×」印の緑ボタンをクリックして拡大、「-」印の緑ボタンをクリックして縮小、緑色の三角印をクリックして隣りの地図に切り替え


METAR-TAF: